ICX245 EIKN-EGPH
Flight info
| Callsign | ICX245 |
|---|---|
| Flight time | 1h 15m |
| Altitude | 21000 |
| Route | CON DCT OLAPO DCT ROTEV DCT GOTNA DCT BLACA P600 TUNSO |
| Aircraft | AT46/M-SDFGIRY/S |
Departure
| Time | 2026-04-26 04:18 |
|---|---|
| Airport | Ireland West Airport Knock (EIKN) |
Arrival
| Time | 2026-04-26 05:33 |
|---|---|
| Airport | Edinburgh Airport (EGPH) |
| Time | Latitude | Longitude | Altitude | Speed | Heading |
|---|---|---|---|---|---|
| 2026-04-26 03:52 | 53.91405 | -8.80937 | 639 ft | 0 kts | 289° |
| 2026-04-26 04:12 | 53.91405 | -8.80944 | 639 ft | 1 kts | 268° |
| 2026-04-26 04:13 | 53.91399 | -8.80954 | 639 ft | 1 kts | 207° |
| 2026-04-26 04:13 | 53.91386 | -8.80950 | 639 ft | 3 kts | 161° |
| 2026-04-26 04:13 | 53.91373 | -8.80942 | 639 ft | 4 kts | 160° |
| 2026-04-26 04:13 | 53.91359 | -8.80933 | 639 ft | 3 kts | 160° |
| 2026-04-26 04:14 | 53.91329 | -8.80918 | 639 ft | 6 kts | 172° |
| 2026-04-26 04:14 | 53.91292 | -8.80905 | 639 ft | 5 kts | 167° |
| 2026-04-26 04:14 | 53.91280 | -8.80901 | 639 ft | 0 kts | 168° |
| 2026-04-26 04:16 | 53.91265 | -8.80896 | 639 ft | 4 kts | 170° |
| 2026-04-26 04:16 | 53.91231 | -8.80885 | 639 ft | 6 kts | 167° |
| 2026-04-26 04:16 | 53.91194 | -8.80871 | 641 ft | 5 kts | 168° |
| 2026-04-26 04:16 | 53.91159 | -8.80863 | 641 ft | 5 kts | 192° |
| 2026-04-26 04:17 | 53.91140 | -8.80915 | 641 ft | 6 kts | 258° |
| 2026-04-26 04:17 | 53.91138 | -8.80927 | 641 ft | 0 kts | 259° |
| 2026-04-26 04:17 | 53.91092 | -8.81317 | 637 ft | 76 kts | 258° |
| 2026-04-26 04:18 | 53.90947 | -8.82579 | 728 ft | 129 kts | 258° |
| 2026-04-26 04:18 | 53.90749 | -8.84017 | 1404 ft | 124 kts | 255° |
| 2026-04-26 04:18 | 53.90503 | -8.85459 | 1994 ft | 129 kts | 250° |
| 2026-04-26 04:18 | 53.90206 | -8.86892 | 2703 ft | 128 kts | 250° |
| 2026-04-26 04:19 | 53.89915 | -8.88291 | 3451 ft | 124 kts | 249° |
| 2026-04-26 04:19 | 53.89627 | -8.89715 | 4010 ft | 130 kts | 231° |
| 2026-04-26 04:19 | 53.88774 | -8.90221 | 4515 ft | 144 kts | 170° |
| 2026-04-26 04:19 | 53.88027 | -8.89138 | 5135 ft | 151 kts | 115° |
| 2026-04-26 04:20 | 53.87951 | -8.87253 | 5479 ft | 174 kts | 84° |
| 2026-04-26 04:20 | 53.88078 | -8.85246 | 6101 ft | 173 kts | 86° |
| 2026-04-26 04:20 | 53.88191 | -8.83251 | 6850 ft | 166 kts | 85° |
| 2026-04-26 04:20 | 53.88335 | -8.81275 | 7381 ft | 180 kts | 83° |
| 2026-04-26 04:21 | 53.88547 | -8.78993 | 7662 ft | 201 kts | 82° |
| 2026-04-26 04:21 | 53.88760 | -8.76677 | 8401 ft | 197 kts | 83° |
| 2026-04-26 04:21 | 53.88954 | -8.74335 | 8977 ft | 203 kts | 85° |
| 2026-04-26 04:21 | 53.89123 | -8.71872 | 9415 ft | 214 kts | 86° |
| 2026-04-26 04:22 | 53.89276 | -8.69346 | 9998 ft | 217 kts | 87° |
| 2026-04-26 04:22 | 53.89377 | -8.67620 | 10323 ft | 219 kts | 87° |
| 2026-04-26 04:22 | 53.89530 | -8.65047 | 10738 ft | 220 kts | 87° |
| 2026-04-26 04:22 | 53.89679 | -8.62487 | 11116 ft | 222 kts | 88° |
| 2026-04-26 04:23 | 53.89832 | -8.59872 | 11486 ft | 224 kts | 88° |
| 2026-04-26 04:23 | 53.89990 | -8.57237 | 11832 ft | 226 kts | 88° |
| 2026-04-26 04:23 | 53.90151 | -8.54582 | 12178 ft | 227 kts | 88° |
| 2026-04-26 04:23 | 53.90318 | -8.51906 | 12526 ft | 229 kts | 88° |
| 2026-04-26 04:24 | 53.90485 | -8.49213 | 12872 ft | 230 kts | 88° |
| 2026-04-26 04:24 | 53.90651 | -8.46512 | 13221 ft | 231 kts | 87° |
| 2026-04-26 04:24 | 53.90814 | -8.43801 | 13556 ft | 232 kts | 87° |
| 2026-04-26 04:24 | 53.90976 | -8.41074 | 13881 ft | 233 kts | 88° |
| 2026-04-26 04:25 | 53.91134 | -8.38334 | 14197 ft | 234 kts | 88° |
| 2026-04-26 04:25 | 53.91287 | -8.35584 | 14494 ft | 233 kts | 90° |
| 2026-04-26 04:25 | 53.91002 | -8.32924 | 14742 ft | 230 kts | 113° |
| 2026-04-26 04:25 | 53.90491 | -8.30341 | 15047 ft | 232 kts | 111° |
| 2026-04-26 04:26 | 53.90035 | -8.27712 | 15339 ft | 234 kts | 108° |
| 2026-04-26 04:26 | 53.89668 | -8.25019 | 15607 ft | 235 kts | 105° |
| 2026-04-26 04:26 | 53.89355 | -8.22286 | 15866 ft | 237 kts | 104° |
| 2026-04-26 04:26 | 53.89046 | -8.19539 | 16121 ft | 238 kts | 104° |
| 2026-04-26 04:27 | 53.88736 | -8.16779 | 16368 ft | 239 kts | 104° |
| 2026-04-26 04:27 | 53.88422 | -8.14009 | 16605 ft | 240 kts | 104° |
| 2026-04-26 04:27 | 53.88107 | -8.11224 | 16877 ft | 241 kts | 104° |
| 2026-04-26 04:27 | 53.87781 | -8.08436 | 17136 ft | 242 kts | 104° |
| 2026-04-26 04:28 | 53.87449 | -8.05632 | 17380 ft | 243 kts | 104° |
| 2026-04-26 04:28 | 53.87112 | -8.02829 | 17611 ft | 244 kts | 104° |
| 2026-04-26 04:28 | 53.86774 | -8.00007 | 17831 ft | 245 kts | 104° |
| 2026-04-26 04:28 | 53.86433 | -7.97176 | 18044 ft | 246 kts | 104° |
| 2026-04-26 04:29 | 53.86091 | -7.94336 | 18248 ft | 246 kts | 104° |
| 2026-04-26 04:29 | 53.85747 | -7.91486 | 18438 ft | 248 kts | 104° |
| 2026-04-26 04:29 | 53.85398 | -7.88622 | 18621 ft | 249 kts | 104° |
| 2026-04-26 04:29 | 53.85050 | -7.85749 | 18818 ft | 250 kts | 104° |
| 2026-04-26 04:30 | 53.84697 | -7.82858 | 19025 ft | 251 kts | 104° |
| 2026-04-26 04:30 | 53.84341 | -7.79961 | 19227 ft | 252 kts | 104° |
| 2026-04-26 04:30 | 53.83986 | -7.77046 | 19413 ft | 253 kts | 105° |
| 2026-04-26 04:30 | 53.83625 | -7.74120 | 19597 ft | 254 kts | 105° |
| 2026-04-26 04:31 | 53.83269 | -7.71224 | 19776 ft | 255 kts | 105° |
| 2026-04-26 04:31 | 53.82907 | -7.68279 | 19943 ft | 256 kts | 105° |
| 2026-04-26 04:31 | 53.82541 | -7.65320 | 20099 ft | 257 kts | 105° |
| 2026-04-26 04:31 | 53.82174 | -7.62353 | 20258 ft | 258 kts | 105° |
| 2026-04-26 04:32 | 53.81808 | -7.59384 | 20402 ft | 259 kts | 105° |
| 2026-04-26 04:32 | 53.81435 | -7.56398 | 20533 ft | 260 kts | 105° |
| 2026-04-26 04:32 | 53.81063 | -7.53405 | 20680 ft | 260 kts | 105° |
| 2026-04-26 04:32 | 53.80687 | -7.50405 | 20801 ft | 261 kts | 105° |
| 2026-04-26 04:33 | 53.80312 | -7.47399 | 20929 ft | 262 kts | 105° |
| 2026-04-26 04:33 | 53.79933 | -7.44385 | 21066 ft | 262 kts | 105° |
| 2026-04-26 04:33 | 53.79553 | -7.41345 | 21146 ft | 266 kts | 105° |
| 2026-04-26 04:33 | 53.79161 | -7.38253 | 21189 ft | 271 kts | 105° |
| 2026-04-26 04:34 | 53.78762 | -7.35106 | 21205 ft | 276 kts | 105° |
| 2026-04-26 04:34 | 53.78359 | -7.31899 | 21213 ft | 281 kts | 105° |
| 2026-04-26 04:34 | 53.78216 | -7.28621 | 21219 ft | 289 kts | 84° |
| 2026-04-26 04:34 | 53.78717 | -7.25297 | 21221 ft | 295 kts | 71° |
| 2026-04-26 04:35 | 53.79459 | -7.22038 | 21220 ft | 299 kts | 69° |
| 2026-04-26 04:35 | 53.80242 | -7.18757 | 21220 ft | 302 kts | 69° |
| 2026-04-26 04:35 | 53.80990 | -7.15417 | 21220 ft | 305 kts | 71° |
| 2026-04-26 04:35 | 53.81690 | -7.12021 | 21220 ft | 307 kts | 72° |
| 2026-04-26 04:36 | 53.82389 | -7.08598 | 21219 ft | 309 kts | 72° |
| 2026-04-26 04:36 | 53.83099 | -7.05157 | 21220 ft | 310 kts | 71° |
| 2026-04-26 04:36 | 53.83814 | -7.01713 | 21220 ft | 311 kts | 71° |
| 2026-04-26 04:36 | 53.84526 | -6.98252 | 21219 ft | 312 kts | 72° |
| 2026-04-26 04:37 | 53.85237 | -6.94784 | 21220 ft | 312 kts | 72° |
| 2026-04-26 04:37 | 53.85951 | -6.91307 | 21220 ft | 313 kts | 72° |
| 2026-04-26 04:37 | 53.86662 | -6.87827 | 21220 ft | 313 kts | 72° |
| 2026-04-26 04:37 | 53.87375 | -6.84338 | 21220 ft | 313 kts | 72° |
| 2026-04-26 04:38 | 53.88084 | -6.80853 | 21220 ft | 313 kts | 72° |
| 2026-04-26 04:38 | 53.88795 | -6.77362 | 21220 ft | 313 kts | 72° |
| 2026-04-26 04:38 | 53.89502 | -6.73877 | 21220 ft | 313 kts | 72° |
| 2026-04-26 04:38 | 53.90211 | -6.70383 | 21219 ft | 313 kts | 72° |
| 2026-04-26 04:39 | 53.90919 | -6.66893 | 21220 ft | 313 kts | 72° |
| 2026-04-26 04:39 | 53.91622 | -6.63402 | 21220 ft | 313 kts | 72° |
| 2026-04-26 04:39 | 53.92328 | -6.59910 | 21220 ft | 313 kts | 72° |
| 2026-04-26 04:39 | 53.93029 | -6.56418 | 21220 ft | 313 kts | 72° |
| 2026-04-26 04:40 | 53.93733 | -6.52921 | 21222 ft | 313 kts | 72° |
| 2026-04-26 04:40 | 53.94434 | -6.49421 | 21221 ft | 313 kts | 72° |
| 2026-04-26 04:40 | 53.95125 | -6.45971 | 21220 ft | 313 kts | 72° |
| 2026-04-26 04:40 | 53.95826 | -6.42466 | 21219 ft | 313 kts | 72° |
| 2026-04-26 04:41 | 53.96534 | -6.38915 | 21220 ft | 313 kts | 72° |
| 2026-04-26 04:41 | 53.97233 | -6.35411 | 21220 ft | 313 kts | 72° |
| 2026-04-26 04:41 | 53.97919 | -6.31952 | 21219 ft | 313 kts | 72° |
| 2026-04-26 04:41 | 53.98625 | -6.28401 | 21220 ft | 313 kts | 72° |
| 2026-04-26 04:42 | 53.99309 | -6.24943 | 21221 ft | 313 kts | 72° |
| 2026-04-26 04:42 | 54.00002 | -6.21434 | 21224 ft | 313 kts | 72° |
| 2026-04-26 04:42 | 54.00695 | -6.17924 | 21228 ft | 313 kts | 72° |
| 2026-04-26 04:42 | 54.01389 | -6.14409 | 21226 ft | 313 kts | 72° |
| 2026-04-26 04:43 | 54.02079 | -6.10899 | 21226 ft | 313 kts | 71° |
| 2026-04-26 04:43 | 54.03147 | -6.07714 | 21227 ft | 311 kts | 46° |
| 2026-04-26 04:43 | 54.04739 | -6.05250 | 21232 ft | 310 kts | 36° |
| 2026-04-26 04:43 | 54.06570 | -6.03342 | 21229 ft | 308 kts | 24° |
| 2026-04-26 04:44 | 54.08518 | -6.01844 | 21231 ft | 307 kts | 21° |
| 2026-04-26 04:44 | 54.10485 | -6.00415 | 21231 ft | 307 kts | 21° |
| 2026-04-26 04:44 | 54.12438 | -5.98917 | 21231 ft | 308 kts | 23° |
| 2026-04-26 04:44 | 54.14373 | -5.97326 | 21231 ft | 309 kts | 24° |
| 2026-04-26 04:45 | 54.16304 | -5.95723 | 21229 ft | 309 kts | 24° |
| 2026-04-26 04:45 | 54.18241 | -5.94136 | 21236 ft | 308 kts | 23° |
| 2026-04-26 04:45 | 54.20173 | -5.92547 | 21237 ft | 309 kts | 23° |
| 2026-04-26 04:45 | 54.22107 | -5.90955 | 21237 ft | 308 kts | 23° |
| 2026-04-26 04:46 | 54.24040 | -5.89362 | 21240 ft | 309 kts | 24° |
| 2026-04-26 04:46 | 54.25975 | -5.87769 | 21243 ft | 309 kts | 24° |
| 2026-04-26 04:46 | 54.27911 | -5.86171 | 21239 ft | 309 kts | 24° |
| 2026-04-26 04:46 | 54.29848 | -5.84572 | 21237 ft | 309 kts | 24° |
| 2026-04-26 04:47 | 54.31786 | -5.82969 | 21237 ft | 309 kts | 24° |
| 2026-04-26 04:47 | 54.33723 | -5.81362 | 21240 ft | 310 kts | 24° |
| 2026-04-26 04:47 | 54.35663 | -5.79756 | 21241 ft | 310 kts | 24° |
| 2026-04-26 04:47 | 54.37578 | -5.78168 | 21238 ft | 310 kts | 24° |
| 2026-04-26 04:48 | 54.41460 | -5.74942 | 21242 ft | 310 kts | 24° |
| 2026-04-26 04:48 | 54.43406 | -5.73329 | 21239 ft | 311 kts | 24° |
| 2026-04-26 04:48 | 54.45347 | -5.71706 | 21236 ft | 311 kts | 24° |
| 2026-04-26 04:49 | 54.47293 | -5.70085 | 21239 ft | 311 kts | 24° |
| 2026-04-26 04:49 | 54.49238 | -5.68459 | 21238 ft | 311 kts | 24° |
| 2026-04-26 04:49 | 54.51182 | -5.66836 | 21237 ft | 311 kts | 24° |
| 2026-04-26 04:49 | 54.53126 | -5.65211 | 21238 ft | 311 kts | 24° |
| 2026-04-26 04:50 | 54.55070 | -5.63589 | 21237 ft | 310 kts | 24° |
| 2026-04-26 04:50 | 54.57013 | -5.61962 | 21240 ft | 310 kts | 24° |
| 2026-04-26 04:50 | 54.58953 | -5.60337 | 21240 ft | 310 kts | 24° |
| 2026-04-26 04:50 | 54.60757 | -5.58333 | 21238 ft | 311 kts | 39° |
| 2026-04-26 04:51 | 54.62351 | -5.55788 | 21241 ft | 313 kts | 43° |
| 2026-04-26 04:51 | 54.63895 | -5.53210 | 21243 ft | 313 kts | 43° |
| 2026-04-26 04:51 | 54.65493 | -5.50646 | 21237 ft | 314 kts | 40° |
| 2026-04-26 04:51 | 54.67131 | -5.48173 | 21234 ft | 313 kts | 39° |
| 2026-04-26 04:52 | 54.68778 | -5.45705 | 21237 ft | 313 kts | 40° |
| 2026-04-26 04:52 | 54.70415 | -5.43226 | 21237 ft | 313 kts | 40° |
| 2026-04-26 04:52 | 54.72047 | -5.40736 | 21238 ft | 313 kts | 40° |
| 2026-04-26 04:52 | 54.73683 | -5.38248 | 21238 ft | 313 kts | 40° |
| 2026-04-26 04:53 | 54.75316 | -5.35758 | 21240 ft | 313 kts | 40° |
| 2026-04-26 04:53 | 54.76950 | -5.33271 | 21238 ft | 313 kts | 40° |
| 2026-04-26 04:53 | 54.78583 | -5.30779 | 21239 ft | 313 kts | 40° |
| 2026-04-26 04:53 | 54.80215 | -5.28283 | 21238 ft | 313 kts | 40° |
| 2026-04-26 04:54 | 54.81848 | -5.25789 | 21238 ft | 313 kts | 40° |
| 2026-04-26 04:54 | 54.83477 | -5.23290 | 21239 ft | 313 kts | 40° |
| 2026-04-26 04:54 | 54.85108 | -5.20794 | 21241 ft | 313 kts | 40° |
| 2026-04-26 04:54 | 54.86740 | -5.18290 | 21245 ft | 313 kts | 40° |
| 2026-04-26 04:55 | 54.88376 | -5.15810 | 21245 ft | 312 kts | 36° |
| 2026-04-26 04:55 | 54.90236 | -5.13933 | 21253 ft | 308 kts | 23° |
| 2026-04-26 04:55 | 54.92193 | -5.12419 | 21250 ft | 308 kts | 21° |
| 2026-04-26 04:55 | 54.94160 | -5.10912 | 21248 ft | 309 kts | 22° |
| 2026-04-26 04:56 | 54.96075 | -5.09318 | 21247 ft | 310 kts | 24° |
| 2026-04-26 04:56 | 54.97998 | -5.07624 | 21246 ft | 310 kts | 25° |
| 2026-04-26 04:56 | 54.99928 | -5.05937 | 21246 ft | 310 kts | 24° |
| 2026-04-26 04:56 | 55.01859 | -5.04267 | 21247 ft | 310 kts | 24° |
| 2026-04-26 04:57 | 55.03790 | -5.02590 | 21250 ft | 310 kts | 24° |
| 2026-04-26 04:57 | 55.05722 | -5.00918 | 21249 ft | 310 kts | 24° |
| 2026-04-26 04:57 | 55.07656 | -4.99237 | 21247 ft | 310 kts | 24° |
| 2026-04-26 04:57 | 55.09577 | -4.97537 | 21246 ft | 308 kts | 28° |
| 2026-04-26 04:58 | 55.11160 | -4.95017 | 21253 ft | 311 kts | 51° |
| 2026-04-26 04:58 | 55.12336 | -4.91846 | 21256 ft | 312 kts | 63° |
| 2026-04-26 04:58 | 55.13213 | -4.88368 | 21255 ft | 313 kts | 69° |
| 2026-04-26 04:58 | 55.14002 | -4.84822 | 21256 ft | 314 kts | 69° |
| 2026-04-26 04:59 | 55.14801 | -4.81270 | 21259 ft | 314 kts | 68° |
| 2026-04-26 04:59 | 55.15653 | -4.77755 | 21258 ft | 314 kts | 66° |
| 2026-04-26 04:59 | 55.16532 | -4.74261 | 21258 ft | 314 kts | 66° |
| 2026-04-26 04:59 | 55.17402 | -4.70756 | 21259 ft | 314 kts | 67° |
| 2026-04-26 05:00 | 55.18270 | -4.67243 | 21256 ft | 314 kts | 67° |
| 2026-04-26 05:00 | 55.19136 | -4.63730 | 21256 ft | 314 kts | 67° |
| 2026-04-26 05:00 | 55.20000 | -4.60223 | 21256 ft | 314 kts | 66° |
| 2026-04-26 05:00 | 55.20853 | -4.56755 | 21256 ft | 314 kts | 67° |
| 2026-04-26 05:01 | 55.21715 | -4.53244 | 21258 ft | 314 kts | 67° |
| 2026-04-26 05:01 | 55.22587 | -4.49685 | 21262 ft | 314 kts | 67° |
| 2026-04-26 05:01 | 55.23435 | -4.46220 | 21265 ft | 314 kts | 67° |
| 2026-04-26 05:01 | 55.24292 | -4.42710 | 21263 ft | 314 kts | 67° |
| 2026-04-26 05:02 | 55.25149 | -4.39196 | 21264 ft | 314 kts | 67° |
| 2026-04-26 05:02 | 55.26006 | -4.35684 | 21266 ft | 313 kts | 67° |
| 2026-04-26 05:02 | 55.26860 | -4.32166 | 21269 ft | 313 kts | 67° |
| 2026-04-26 05:02 | 55.27716 | -4.28650 | 21266 ft | 314 kts | 67° |
| 2026-04-26 05:03 | 55.28568 | -4.25130 | 21267 ft | 314 kts | 67° |
| 2026-04-26 05:03 | 55.29422 | -4.21604 | 21266 ft | 314 kts | 67° |
| 2026-04-26 05:03 | 55.30287 | -4.18020 | 20823 ft | 328 kts | 67° |
| 2026-04-26 05:03 | 55.31199 | -4.14238 | 20274 ft | 342 kts | 67° |
| 2026-04-26 05:04 | 55.32126 | -4.10397 | 20065 ft | 341 kts | 67° |
| 2026-04-26 05:04 | 55.33047 | -4.06560 | 19884 ft | 340 kts | 67° |
| 2026-04-26 05:04 | 55.33963 | -4.02739 | 19710 ft | 339 kts | 67° |
| 2026-04-26 05:04 | 55.34878 | -3.98926 | 19554 ft | 338 kts | 67° |
| 2026-04-26 05:05 | 55.35787 | -3.95118 | 19411 ft | 337 kts | 67° |
| 2026-04-26 05:05 | 55.36691 | -3.91336 | 19299 ft | 335 kts | 67° |
| 2026-04-26 05:05 | 55.37590 | -3.87566 | 19173 ft | 334 kts | 67° |
| 2026-04-26 05:05 | 55.38483 | -3.83802 | 19051 ft | 333 kts | 67° |
| 2026-04-26 05:06 | 55.39375 | -3.80043 | 18944 ft | 333 kts | 67° |
| 2026-04-26 05:06 | 55.40264 | -3.76294 | 18835 ft | 332 kts | 67° |
| 2026-04-26 05:06 | 55.41149 | -3.72549 | 18689 ft | 331 kts | 68° |
| 2026-04-26 05:06 | 55.42034 | -3.68811 | 18533 ft | 330 kts | 68° |
| 2026-04-26 05:07 | 55.42911 | -3.65087 | 18267 ft | 324 kts | 68° |
| 2026-04-26 05:07 | 55.43760 | -3.61473 | 17426 ft | 322 kts | 67° |
| 2026-04-26 05:07 | 55.44614 | -3.57847 | 16671 ft | 319 kts | 68° |
| 2026-04-26 05:07 | 55.45458 | -3.54251 | 15945 ft | 315 kts | 68° |
| 2026-04-26 05:08 | 55.46288 | -3.50703 | 15229 ft | 312 kts | 68° |
| 2026-04-26 05:08 | 55.47109 | -3.47189 | 14519 ft | 308 kts | 68° |
| 2026-04-26 05:08 | 55.47920 | -3.43711 | 13818 ft | 305 kts | 68° |
| 2026-04-26 05:08 | 55.48724 | -3.40271 | 13131 ft | 302 kts | 68° |
| 2026-04-26 05:09 | 55.49557 | -3.36912 | 12431 ft | 296 kts | 60° |
| 2026-04-26 05:09 | 55.50938 | -3.34266 | 11706 ft | 294 kts | 37° |
| 2026-04-26 05:09 | 55.52645 | -3.32340 | 11267 ft | 286 kts | 27° |
| 2026-04-26 05:09 | 55.54380 | -3.30763 | 10814 ft | 278 kts | 25° |
| 2026-04-26 05:10 | 55.56098 | -3.29232 | 10275 ft | 275 kts | 25° |
| 2026-04-26 05:10 | 55.57783 | -3.27664 | 9764 ft | 272 kts | 26° |
| 2026-04-26 05:10 | 55.59433 | -3.26059 | 9281 ft | 269 kts | 27° |
| 2026-04-26 05:10 | 55.61073 | -3.24494 | 8809 ft | 266 kts | 26° |
| 2026-04-26 05:11 | 55.62703 | -3.22962 | 8361 ft | 264 kts | 26° |
| 2026-04-26 05:11 | 55.64321 | -3.21449 | 7918 ft | 262 kts | 26° |
| 2026-04-26 05:11 | 55.65906 | -3.19972 | 7478 ft | 260 kts | 26° |
| 2026-04-26 05:11 | 55.67502 | -3.18496 | 7232 ft | 257 kts | 26° |
| 2026-04-26 05:12 | 55.69065 | -3.17048 | 7125 ft | 251 kts | 26° |
| 2026-04-26 05:12 | 55.70605 | -3.15621 | 7063 ft | 249 kts | 26° |
| 2026-04-26 05:12 | 55.72140 | -3.14210 | 7026 ft | 247 kts | 26° |
| 2026-04-26 05:12 | 55.73412 | -3.12251 | 6995 ft | 244 kts | 54° |
| 2026-04-26 05:13 | 55.74338 | -3.09730 | 6996 ft | 244 kts | 57° |
| 2026-04-26 05:13 | 55.75237 | -3.07148 | 6993 ft | 247 kts | 58° |
| 2026-04-26 05:13 | 55.76127 | -3.04520 | 6999 ft | 249 kts | 58° |
| 2026-04-26 05:13 | 55.77012 | -3.01868 | 7020 ft | 251 kts | 58° |
| 2026-04-26 05:14 | 55.77900 | -2.99176 | 7018 ft | 254 kts | 59° |
| 2026-04-26 05:14 | 55.78793 | -2.96447 | 7002 ft | 256 kts | 59° |
| 2026-04-26 05:14 | 55.79690 | -2.93699 | 7005 ft | 257 kts | 59° |
| 2026-04-26 05:14 | 55.80589 | -2.90943 | 6985 ft | 258 kts | 59° |
| 2026-04-26 05:15 | 55.81484 | -2.88184 | 6981 ft | 257 kts | 59° |
| 2026-04-26 05:15 | 55.82377 | -2.85438 | 6994 ft | 257 kts | 59° |
| 2026-04-26 05:15 | 55.83266 | -2.82689 | 6992 ft | 257 kts | 59° |
| 2026-04-26 05:15 | 55.84158 | -2.79935 | 6989 ft | 257 kts | 59° |
| 2026-04-26 05:16 | 55.85047 | -2.77183 | 6997 ft | 256 kts | 58° |
| 2026-04-26 05:16 | 55.86232 | -2.74908 | 6979 ft | 249 kts | 37° |
| 2026-04-26 05:16 | 55.87602 | -2.73029 | 6985 ft | 249 kts | 36° |
| 2026-04-26 05:16 | 55.88992 | -2.71181 | 7009 ft | 250 kts | 35° |
| 2026-04-26 05:17 | 55.89917 | -2.69967 | 6999 ft | 250 kts | 34° |
| 2026-04-26 05:17 | 55.91327 | -2.68130 | 6992 ft | 251 kts | 34° |
| 2026-04-26 05:17 | 55.93202 | -2.65704 | 6999 ft | 252 kts | 34° |
| 2026-04-26 05:17 | 55.94751 | -2.64370 | 6996 ft | 247 kts | 7° |
| 2026-04-26 05:18 | 55.96373 | -2.64737 | 6987 ft | 229 kts | 336° |
| 2026-04-26 05:18 | 55.97349 | -2.65512 | 6805 ft | 227 kts | 333° |
| 2026-04-26 05:18 | 55.98764 | -2.66740 | 6466 ft | 225 kts | 332° |
| 2026-04-26 05:18 | 56.00154 | -2.68012 | 6117 ft | 224 kts | 331° |
| 2026-04-26 05:19 | 56.01456 | -2.69408 | 5726 ft | 219 kts | 315° |
| 2026-04-26 05:19 | 56.02143 | -2.71764 | 5364 ft | 217 kts | 277° |
| 2026-04-26 05:19 | 56.01952 | -2.74408 | 4974 ft | 215 kts | 256° |
| 2026-04-26 05:19 | 56.01612 | -2.77028 | 4566 ft | 217 kts | 258° |
| 2026-04-26 05:20 | 56.01311 | -2.79665 | 4226 ft | 216 kts | 259° |
| 2026-04-26 05:20 | 56.01034 | -2.82311 | 3879 ft | 217 kts | 258° |
| 2026-04-26 05:20 | 56.00743 | -2.84955 | 3614 ft | 217 kts | 258° |
| 2026-04-26 05:20 | 56.00446 | -2.87605 | 3465 ft | 218 kts | 257° |
| 2026-04-26 05:21 | 56.00140 | -2.90248 | 3307 ft | 217 kts | 257° |
| 2026-04-26 05:21 | 55.99838 | -2.92900 | 3132 ft | 218 kts | 257° |
| 2026-04-26 05:21 | 55.99541 | -2.95547 | 3060 ft | 217 kts | 257° |
| 2026-04-26 05:21 | 55.99254 | -2.98171 | 3031 ft | 214 kts | 257° |
| 2026-04-26 05:22 | 55.98975 | -3.00760 | 3017 ft | 211 kts | 257° |
| 2026-04-26 05:22 | 55.98699 | -3.03319 | 3011 ft | 208 kts | 257° |
| 2026-04-26 05:22 | 55.98426 | -3.05847 | 3007 ft | 207 kts | 257° |
| 2026-04-26 05:22 | 55.98157 | -3.08358 | 3006 ft | 205 kts | 257° |
| 2026-04-26 05:23 | 55.97888 | -3.10856 | 3006 ft | 204 kts | 257° |
| 2026-04-26 05:23 | 55.97690 | -3.13349 | 3005 ft | 203 kts | 266° |
| 2026-04-26 05:23 | 55.97735 | -3.15869 | 3013 ft | 203 kts | 272° |
| 2026-04-26 05:23 | 55.98104 | -3.18262 | 3025 ft | 203 kts | 301° |
| 2026-04-26 05:24 | 55.98878 | -3.20374 | 3007 ft | 204 kts | 302° |
| 2026-04-26 05:24 | 55.99668 | -3.22491 | 2994 ft | 205 kts | 303° |
| 2026-04-26 05:24 | 56.00519 | -3.24498 | 2995 ft | 201 kts | 319° |
| 2026-04-26 05:24 | 56.01788 | -3.25364 | 3003 ft | 199 kts | 355° |
| 2026-04-26 05:25 | 56.03194 | -3.25567 | 3002 ft | 201 kts | 357° |
| 2026-04-26 05:25 | 56.04588 | -3.25679 | 3003 ft | 198 kts | 4° |
| 2026-04-26 05:25 | 56.05802 | -3.24743 | 3008 ft | 195 kts | 47° |
| 2026-04-26 05:25 | 56.06624 | -3.22820 | 3109 ft | 197 kts | 57° |
| 2026-04-26 05:26 | 56.07423 | -3.20776 | 3121 ft | 203 kts | 57° |
| 2026-04-26 05:26 | 56.08218 | -3.18648 | 3076 ft | 207 kts | 59° |
| 2026-04-26 05:26 | 56.09003 | -3.16482 | 3098 ft | 208 kts | 59° |
| 2026-04-26 05:26 | 56.09789 | -3.14291 | 3084 ft | 208 kts | 60° |
| 2026-04-26 05:27 | 56.10162 | -3.11890 | 3040 ft | 201 kts | 97° |
| 2026-04-26 05:27 | 56.09552 | -3.09725 | 3023 ft | 197 kts | 139° |
| 2026-04-26 05:27 | 56.08456 | -3.08296 | 3009 ft | 195 kts | 146° |
| 2026-04-26 05:27 | 56.07325 | -3.06958 | 3005 ft | 194 kts | 148° |
| 2026-04-26 05:28 | 56.06098 | -3.06144 | 3008 ft | 190 kts | 181° |
| 2026-04-26 05:28 | 56.04878 | -3.06950 | 3008 ft | 193 kts | 221° |
| 2026-04-26 05:28 | 56.04207 | -3.09015 | 3007 ft | 195 kts | 249° |
| 2026-04-26 05:28 | 56.03740 | -3.11299 | 3001 ft | 194 kts | 245° |
| 2026-04-26 05:29 | 56.03116 | -3.13415 | 2927 ft | 192 kts | 237° |
| 2026-04-26 05:29 | 56.02413 | -3.15389 | 2714 ft | 185 kts | 235° |
| 2026-04-26 05:29 | 56.01736 | -3.17251 | 2473 ft | 172 kts | 237° |
| 2026-04-26 05:29 | 56.01145 | -3.19030 | 2249 ft | 160 kts | 239° |
| 2026-04-26 05:30 | 56.00609 | -3.20645 | 2049 ft | 144 kts | 238° |
| 2026-04-26 05:30 | 56.00111 | -3.22094 | 1867 ft | 132 kts | 237° |
| 2026-04-26 05:30 | 55.99645 | -3.23474 | 1694 ft | 128 kts | 238° |
| 2026-04-26 05:30 | 55.99198 | -3.24825 | 1525 ft | 125 kts | 239° |
| 2026-04-26 05:31 | 55.98757 | -3.26140 | 1361 ft | 124 kts | 239° |
| 2026-04-26 05:31 | 55.98320 | -3.27452 | 1196 ft | 119 kts | 239° |
| 2026-04-26 05:31 | 55.97906 | -3.28683 | 1044 ft | 116 kts | 239° |
| 2026-04-26 05:31 | 55.97489 | -3.29905 | 892 ft | 115 kts | 238° |
| 2026-04-26 05:32 | 55.97075 | -3.31108 | 741 ft | 113 kts | 239° |
| 2026-04-26 05:32 | 55.96670 | -3.32304 | 592 ft | 112 kts | 238° |
| 2026-04-26 05:32 | 55.96265 | -3.33482 | 443 ft | 111 kts | 238° |
| 2026-04-26 05:32 | 55.95865 | -3.34671 | 287 ft | 111 kts | 238° |
| 2026-04-26 05:33 | 55.95471 | -3.35842 | 152 ft | 109 kts | 238° |
| 2026-04-26 05:33 | 55.95093 | -3.36926 | 110 ft | 92 kts | 239° |
| 2026-04-26 05:33 | 55.94906 | -3.37506 | 108 ft | 42 kts | 239° |
| 2026-04-26 05:33 | 55.94782 | -3.37887 | 112 ft | 28 kts | 238° |
| 2026-04-26 05:34 | 55.94718 | -3.38057 | 110 ft | 10 kts | 209° |
| 2026-04-26 05:34 | 55.94662 | -3.38025 | 111 ft | 8 kts | 150° |
| 2026-04-26 05:34 | 55.94621 | -3.37981 | 112 ft | 0 kts | 147° |
| 2026-04-26 05:36 | 55.94608 | -3.37967 | 112 ft | 4 kts | 148° |
| 2026-04-26 05:36 | 55.94588 | -3.37922 | 112 ft | 5 kts | 102° |
| 2026-04-26 05:36 | 55.94600 | -3.37856 | 112 ft | 6 kts | 58° |
| 2026-04-26 05:37 | 55.94625 | -3.37784 | 112 ft | 7 kts | 58° |
| 2026-04-26 05:37 | 55.94651 | -3.37705 | 112 ft | 8 kts | 59° |
| 2026-04-26 05:37 | 55.94680 | -3.37621 | 112 ft | 8 kts | 58° |
| 2026-04-26 05:37 | 55.94710 | -3.37532 | 112 ft | 8 kts | 60° |
| 2026-04-26 05:38 | 55.94741 | -3.37442 | 112 ft | 9 kts | 57° |
| 2026-04-26 05:38 | 55.94773 | -3.37352 | 112 ft | 9 kts | 60° |
| 2026-04-26 05:38 | 55.94803 | -3.37258 | 112 ft | 9 kts | 59° |
| 2026-04-26 05:38 | 55.94835 | -3.37166 | 112 ft | 9 kts | 58° |
| 2026-04-26 05:39 | 55.94866 | -3.37074 | 110 ft | 9 kts | 58° |
| 2026-04-26 05:39 | 55.94897 | -3.36982 | 112 ft | 9 kts | 59° |
| 2026-04-26 05:39 | 55.94927 | -3.36889 | 112 ft | 8 kts | 69° |
| 2026-04-26 05:39 | 55.94904 | -3.36812 | 113 ft | 8 kts | 148° |
| 2026-04-26 05:40 | 55.94850 | -3.36779 | 113 ft | 9 kts | 179° |
| 2026-04-26 05:40 | 55.94788 | -3.36777 | 113 ft | 9 kts | 169° |
| 2026-04-26 05:40 | 55.94731 | -3.36736 | 113 ft | 9 kts | 180° |
| 2026-04-26 05:40 | 55.94667 | -3.36735 | 113 ft | 9 kts | 179° |
| 2026-04-26 05:41 | 55.94610 | -3.36734 | 113 ft | 5 kts | 179° |
| 2026-04-26 05:41 | 55.94598 | -3.36743 | 113 ft | 2 kts | 238° |
| 2026-04-26 05:41 | 55.94594 | -3.36782 | 113 ft | 3 kts | 269° |
| 2026-04-26 05:41 | 55.94594 | -3.36817 | 113 ft | 2 kts | 269° |
| 2026-04-26 05:42 | 55.94594 | -3.36844 | 113 ft | 2 kts | 269° |
| 2026-04-26 05:42 | 55.94594 | -3.36855 | 113 ft | 0 kts | 268° |